Terminal Aerodrome Forecast
Issued by NWS

Home | Current Version | Previous Version | Text Only | Print | Product List | Glossary On
Versions: 1 2 3 4 5 6 7 8 9 10 11 12 13 14
000
FTUS44 KEPZ 052300 RRA
TAFDMN
TAF
KDMN 052351Z 0600/0624 06007KT P6SM FEW050
     FM061500 07011KT P6SM SKC
     FM061600 10008KT P6SM SKC=

USA.gov is the U.S. government's official web portal to all federal, state and local government web resources and services.